Time;durP1;ratioP1;P1;durP2;ratioP2;P2;SDS_P1;SDS_P2;PMS_P1;PMS_P2;Temp;Humidity;BMP_temperature;BMP_pressure;BME280_temperature;BME280_humidity;BME280_pressure;Samples;Min_cycle;Max_cycle;Signal;HPM_P1;HPM_P2
2023/07/22 00:00:31;;;;;;;1.60;1.50;;;14.70;99.90;;;;;;5001963;28;21060;-75
2023/07/22 00:02:59;;;;;;;4.37;2.00;;;14.70;99.90;;;;;;4994233;28;20488;-75
2023/07/22 00:05:25;;;;;;;2.03;1.83;;;14.70;99.90;;;;;;4993496;28;20473;-74
2023/07/22 00:07:52;;;;;;;2.70;2.03;;;14.70;99.90;;;;;;5001915;28;20479;-75
2023/07/22 00:10:19;;;;;;;2.00;1.80;;;14.80;99.90;;;;;;4993614;28;20958;-75
2023/07/22 00:12:46;;;;;;;1.77;1.60;;;14.80;99.90;;;;;;4993572;28;20976;-75
2023/07/22 00:15:12;;;;;;;2.80;1.90;;;14.80;99.90;;;;;;5067003;23;20475;-71
2023/07/22 00:17:40;;;;;;;1.97;1.63;;;14.70;99.90;;;;;;5031778;28;20473;-70
2023/07/22 00:20:10;;;;;;;2.07;1.57;;;14.70;99.90;;;;;;5032793;28;20877;-70
2023/07/22 00:22:39;;;;;;;1.93;1.63;;;14.70;99.90;;;;;;5032691;28;20504;-70
2023/07/22 00:25:07;;;;;;;2.07;1.87;;;14.70;99.90;;;;;;5032700;28;21026;-70
2023/07/22 00:27:34;;;;;;;2.10;1.83;;;14.60;99.90;;;;;;5031844;28;20484;-70
2023/07/22 00:30:01;;;;;;;2.17;1.37;;;14.60;99.90;;;;;;5032704;28;20834;-70
2023/07/22 00:32:27;;;;;;;2.23;1.93;;;14.50;99.90;;;;;;5032355;28;20469;-70
2023/07/22 00:34:54;;;;;;;2.20;2.00;;;14.50;99.90;;;;;;5032689;28;20457;-71
2023/07/22 00:37:22;;;;;;;2.67;1.73;;;14.40;99.90;;;;;;5032254;28;20483;-70
2023/07/22 00:39:49;;;;;;;2.40;1.60;;;14.30;99.90;;;;;;5032745;28;20488;-70
2023/07/22 00:42:16;;;;;;;2.10;1.80;;;14.30;99.90;;;;;;5032741;28;20464;-69
2023/07/22 00:44:42;;;;;;;2.37;2.17;;;14.20;99.90;;;;;;5032388;28;20972;-70
2023/07/22 00:47:10;;;;;;;4.63;2.13;;;14.20;99.90;;;;;;5032407;28;20507;-70
2023/07/22 00:49:38;;;;;;;2.70;2.00;;;14.20;99.90;;;;;;5032363;28;20840;-70
2023/07/22 00:52:06;;;;;;;2.37;1.80;;;14.10;99.90;;;;;;5032751;28;21001;-70
2023/07/22 00:54:34;;;;;;;2.60;1.60;;;14.00;99.90;;;;;;5032031;28;20465;-70
2023/07/22 00:57:01;;;;;;;2.03;1.80;;;14.00;99.90;;;;;;5031756;28;20547;-70
2023/07/22 00:59:29;;;;;;;1.90;1.80;;;13.90;99.90;;;;;;5032086;28;20464;-70
2023/07/22 01:01:55;;;;;;;2.80;2.00;;;13.80;99.90;;;;;;5032538;28;20461;-70
2023/07/22 01:04:24;;;;;;;2.20;1.87;;;13.70;99.90;;;;;;5032024;28;20465;-71
2023/07/22 01:06:53;;;;;;;1.60;1.30;;;13.70;99.90;;;;;;5031819;28;20477;-70
2023/07/22 01:09:20;;;;;;;2.13;1.87;;;13.60;99.90;;;;;;5032243;28;20464;-70
2023/07/22 01:11:48;;;;;;;3.50;1.70;;;13.60;99.90;;;;;;5032052;28;20461;-70
2023/07/22 01:14:15;;;;;;;1.97;1.60;;;13.50;99.90;;;;;;5031884;28;20464;-70
2023/07/22 01:16:42;;;;;;;2.53;1.60;;;13.50;99.90;;;;;;5031648;28;20462;-70
2023/07/22 01:19:10;;;;;;;2.27;2.07;;;13.40;99.90;;;;;;5032195;28;20481;-70
2023/07/22 01:21:38;;;;;;;1.60;1.47;;;13.40;99.90;;;;;;5031820;28;20467;-70
2023/07/22 01:24:06;;;;;;;2.57;2.10;;;13.30;99.90;;;;;;5032163;28;20468;-70
2023/07/22 01:26:33;;;;;;;2.27;2.07;;;13.30;99.90;;;;;;5031257;28;20480;-70
2023/07/22 01:29:04;;;;;;;2.47;2.27;;;13.30;99.90;;;;;;5031985;28;20476;-70
2023/07/22 01:31:31;;;;;;;1.87;1.67;;;13.20;99.90;;;;;;5031628;28;20468;-70
2023/07/22 01:33:58;;;;;;;1.90;1.50;;;13.20;99.90;;;;;;5032106;28;20460;-70
2023/07/22 01:36:25;;;;;;;2.83;2.20;;;13.20;99.90;;;;;;5031342;28;20834;-70
2023/07/22 01:38:52;;;;;;;2.17;1.97;;;13.20;99.90;;;;;;5031545;28;20485;-70
2023/07/22 01:41:20;;;;;;;2.27;2.07;;;13.10;99.90;;;;;;5031560;28;20472;-69
2023/07/22 01:43:47;;;;;;;2.83;1.80;;;13.10;99.90;;;;;;5031609;28;20460;-69
2023/07/22 01:46:13;;;;;;;2.50;1.87;;;13.20;99.90;;;;;;5031191;28;20464;-70
2023/07/22 01:48:40;;;;;;;1.90;1.70;;;13.20;99.90;;;;;;5031080;28;20490;-70
2023/07/22 01:51:07;;;;;;;3.83;1.93;;;13.10;99.90;;;;;;5031633;28;20460;-70
2023/07/22 01:53:34;;;;;;;2.30;1.90;;;13.10;99.90;;;;;;5030994;28;20472;-70
2023/07/22 01:56:01;;;;;;;2.13;1.80;;;13.20;99.90;;;;;;5030955;28;20947;-70
2023/07/22 01:58:29;;;;;;;2.40;2.17;;;13.20;99.90;;;;;;5030769;28;20484;-70
2023/07/22 02:00:55;;;;;;;3.00;2.10;;;13.20;99.90;;;;;;5031155;28;20962;-70
2023/07/22 02:03:23;;;;;;;2.03;1.60;;;13.30;99.90;;;;;;5031112;28;20457;-69
2023/07/22 02:05:49;;;;;;;2.23;1.87;;;13.30;99.90;;;;;;5030642;28;20464;-70
2023/07/22 02:08:16;;;;;;;3.10;2.00;;;13.30;99.90;;;;;;5030936;28;20485;-70
2023/07/22 02:10:43;;;;;;;2.07;1.70;;;13.30;99.90;;;;;;5030109;28;20876;-70
2023/07/22 02:13:11;;;;;;;2.40;1.83;;;13.40;99.90;;;;;;5031164;28;20464;-70
2023/07/22 02:15:39;;;;;;;1.93;1.60;;;13.40;99.90;;;;;;5030170;28;20990;-70
2023/07/22 02:18:05;;;;;;;2.57;2.13;;;13.40;99.90;;;;;;5030971;28;20481;-70
2023/07/22 02:20:32;;;;;;;2.53;2.00;;;13.40;99.90;;;;;;5030672;28;20847;-70
2023/07/22 02:22:59;;;;;;;2.10;1.90;;;13.40;99.90;;;;;;5030475;28;20475;-69
2023/07/22 02:25:25;;;;;;;1.70;1.60;;;13.40;99.90;;;;;;5030235;28;20956;-70
2023/07/22 02:27:52;;;;;;;2.87;2.10;;;13.50;99.90;;;;;;5030511;28;20487;-71
2023/07/22 02:30:19;;;;;;;2.23;2.03;;;13.50;99.90;;;;;;5030553;28;20473;-70
2023/07/22 02:32:47;;;;;;;2.23;1.87;;;13.50;99.90;;;;;;5030567;28;20469;-70
2023/07/22 02:35:14;;;;;;;2.03;1.83;;;13.40;99.90;;;;;;5030322;28;20465;-70
2023/07/22 02:37:40;;;;;;;2.03;1.83;;;13.40;99.90;;;;;;5030224;28;21013;-70
2023/07/22 02:40:10;;;;;;;2.43;1.63;;;13.40;99.90;;;;;;5030661;28;20456;-70
2023/07/22 02:42:37;;;;;;;2.27;1.90;;;13.40;99.90;;;;;;5030203;28;20507;-70
2023/07/22 02:45:07;;;;;;;2.07;1.90;;;13.40;99.90;;;;;;5030243;28;20471;-70
2023/07/22 02:47:35;;;;;;;2.37;1.83;;;13.40;99.90;;;;;;5029655;28;20510;-70
2023/07/22 02:50:04;;;;;;;1.63;1.53;;;13.40;99.90;;;;;;5030195;28;20951;-70
2023/07/22 02:52:31;;;;;;;3.17;2.03;;;13.30;99.90;;;;;;5030415;28;20563;-70
2023/07/22 02:55:10;;;;;;;2.50;2.30;;;13.30;99.90;;;;;;5030057;28;20468;-70
2023/07/22 02:57:37;;;;;;;4.13;1.90;;;13.30;99.90;;;;;;5030322;28;20557;-70
2023/07/22 03:00:07;;;;;;;5.27;1.97;;;13.30;99.90;;;;;;5022402;28;20461;-70
2023/07/22 03:02:34;;;;;;;3.03;2.13;;;13.30;99.90;;;;;;5030267;28;20465;-70
2023/07/22 03:05:06;;;;;;;2.43;1.80;;;13.30;99.90;;;;;;5029964;28;20471;-70
2023/07/22 03:07:33;;;;;;;2.40;1.60;;;13.30;99.90;;;;;;5029650;28;21035;-70
2023/07/22 03:10:00;;;;;;;3.23;2.10;;;13.30;99.90;;;;;;5030072;28;20468;-70
2023/07/22 03:12:27;;;;;;;2.87;1.97;;;13.30;99.90;;;;;;5030023;28;20464;-71
2023/07/22 03:14:54;;;;;;;2.17;1.77;;;13.30;99.90;;;;;;5029896;28;21158;-70
2023/07/22 03:17:21;;;;;;;2.40;2.03;;;13.30;99.90;;;;;;5029427;28;20999;-70
2023/07/22 03:19:47;;;;;;;1.77;1.67;;;13.30;99.90;;;;;;5030056;28;20460;-70
2023/07/22 03:22:16;;;;;;;2.17;1.97;;;13.30;99.90;;;;;;5033556;28;20970;-71
2023/07/22 03:24:44;;;;;;;1.97;1.67;;;13.30;99.90;;;;;;5033780;28;20837;-71
2023/07/22 03:27:10;;;;;;;2.57;2.37;;;13.30;99.90;;;;;;5033781;28;20587;-70
2023/07/22 03:29:37;;;;;;;2.20;2.00;;;13.30;99.90;;;;;;5033872;28;20809;-70
2023/07/22 03:32:05;;;;;;;2.10;1.90;;;13.30;99.90;;;;;;5033896;28;20468;-70
2023/07/22 03:34:32;;;;;;;2.20;2.00;;;13.30;99.90;;;;;;5033521;28;20492;-70
2023/07/22 03:36:59;;;;;;;2.20;2.00;;;13.40;99.90;;;;;;5033461;28;20480;-70
2023/07/22 03:39:27;;;;;;;2.67;1.33;;;13.30;99.90;;;;;;5033729;28;20460;-70
2023/07/22 03:41:54;;;;;;;2.27;1.90;;;13.30;99.90;;;;;;5033579;28;20962;-71
2023/07/22 03:44:20;;;;;;;3.77;2.07;;;13.30;99.90;;;;;;5033393;28;20456;-71
2023/07/22 03:46:47;;;;;;;2.67;1.90;;;13.30;99.90;;;;;;5033161;28;20476;-71
2023/07/22 03:49:14;;;;;;;2.27;2.07;;;13.30;99.90;;;;;;5033535;28;20476;-70
2023/07/22 03:51:40;;;;;;;2.17;1.70;;;13.30;99.90;;;;;;5033139;28;20526;-70
2023/07/22 03:54:07;;;;;;;3.03;2.60;;;13.30;99.90;;;;;;5033277;28;20468;-71
2023/07/22 03:56:35;;;;;;;2.23;1.90;;;13.30;99.90;;;;;;5032831;28;20471;-71
2023/07/22 03:59:02;;;;;;;2.43;1.70;;;13.30;99.90;;;;;;5033223;28;20461;-71
2023/07/22 04:01:29;;;;;;;2.20;2.00;;;13.30;99.90;;;;;;5033190;28;20669;-70
2023/07/22 04:03:55;;;;;;;3.37;2.20;;;13.30;99.90;;;;;;5033248;28;20464;-70
2023/07/22 04:06:22;;;;;;;2.50;1.80;;;13.40;99.90;;;;;;5032660;28;21215;-71
2023/07/22 04:08:49;;;;;;;3.40;2.70;;;13.40;99.90;;;;;;5032954;28;20488;-70
2023/07/22 04:11:15;;;;;;;1.83;1.70;;;13.40;99.90;;;;;;5033185;28;20456;-71
2023/07/22 04:13:43;;;;;;;2.20;2.00;;;13.40;99.90;;;;;;5033074;28;20463;-70
2023/07/22 04:16:10;;;;;;;3.40;2.17;;;13.40;99.90;;;;;;5024430;28;20986;-70
2023/07/22 04:18:37;;;;;;;1.70;1.60;;;13.40;99.90;;;;;;5033085;28;20546;-70
2023/07/22 04:21:04;;;;;;;2.17;1.97;;;13.40;99.90;;;;;;5032959;28;20458;-71
2023/07/22 04:23:32;;;;;;;2.67;1.97;;;13.40;99.90;;;;;;5032793;28;20452;-70
2023/07/22 04:25:59;;;;;;;2.70;1.97;;;13.40;99.90;;;;;;5032453;28;20550;-70
2023/07/22 04:28:26;;;;;;;1.80;1.40;;;13.40;99.90;;;;;;5032514;28;20487;-70
2023/07/22 04:30:59;;;;;;;3.53;1.70;;;13.40;99.90;;;;;;5032766;28;20464;-70
2023/07/22 04:33:27;;;;;;;3.07;1.90;;;13.40;99.90;;;;;;5045351;28;20482;-70
2023/07/22 04:35:55;;;;;;;1.97;1.77;;;13.50;99.90;;;;;;5052059;28;20559;-70
2023/07/22 04:38:22;;;;;;;2.80;2.07;;;13.50;99.90;;;;;;5052395;28;21289;-70
2023/07/22 04:40:49;;;;;;;3.20;2.20;;;13.50;99.90;;;;;;5052362;28;20460;-70
2023/07/22 04:43:15;;;;;;;2.93;2.07;;;13.50;99.90;;;;;;5052472;28;20832;-70
2023/07/22 04:45:42;;;;;;;2.67;1.80;;;13.60;99.90;;;;;;5052116;28;20455;-70
2023/07/22 04:48:11;;;;;;;2.17;2.00;;;13.60;99.90;;;;;;5052178;28;20868;-70
2023/07/22 04:50:40;;;;;;;2.73;1.90;;;13.60;99.90;;;;;;5052319;28;20963;-70
2023/07/22 04:53:07;;;;;;;3.03;2.00;;;13.70;99.90;;;;;;5052223;28;20558;-70
2023/07/22 04:55:34;;;;;;;1.87;1.77;;;13.70;99.90;;;;;;5051662;28;20850;-70
2023/07/22 04:58:01;;;;;;;2.10;1.90;;;13.70;99.90;;;;;;5052077;28;20475;-70
2023/07/22 05:00:28;;;;;;;2.20;1.70;;;13.70;99.90;;;;;;5052025;28;20460;-70
2023/07/22 05:02:56;;;;;;;2.10;1.90;;;13.70;99.90;;;;;;5051964;28;20459;-70
2023/07/22 05:05:24;;;;;;;2.83;2.63;;;13.70;99.90;;;;;;5051569;28;20806;-70
2023/07/22 05:07:52;;;;;;;2.10;1.90;;;13.80;99.90;;;;;;5051681;28;20492;-70
2023/07/22 05:10:19;;;;;;;2.30;1.83;;;13.80;99.90;;;;;;5051874;28;20517;-70
2023/07/22 05:12:46;;;;;;;2.50;2.27;;;13.90;99.90;;;;;;5052156;28;20468;-71
2023/07/22 05:15:14;;;;;;;2.93;2.07;;;13.90;99.90;;;;;;5051330;28;20460;-70
2023/07/22 05:17:41;;;;;;;2.73;2.07;;;13.90;99.90;;;;;;5051738;28;20483;-71
2023/07/22 05:20:09;;;;;;;2.57;1.57;;;14.00;99.90;;;;;;5051778;28;20464;-70
2023/07/22 05:22:38;;;;;;;2.47;2.07;;;14.00;99.90;;;;;;5036537;28;20464;-71
2023/07/22 05:25:06;;;;;;;2.30;1.93;;;14.10;99.90;;;;;;5024006;28;21037;-71
2023/07/22 05:27:33;;;;;;;2.47;2.27;;;14.20;99.90;;;;;;5023362;28;20903;-70
2023/07/22 05:30:00;;;;;;;3.00;2.47;;;14.20;99.90;;;;;;5025035;28;20475;-70
2023/07/22 05:32:28;;;;;;;2.03;1.83;;;14.30;99.90;;;;;;5028265;28;20518;-70
2023/07/22 05:34:56;;;;;;;2.03;1.83;;;14.30;99.90;;;;;;5022755;28;20461;-70
2023/07/22 05:37:22;;;;;;;1.60;1.20;;;14.40;99.90;;;;;;5025194;28;20586;-70
2023/07/22 05:39:51;;;;;;;2.70;1.77;;;14.40;99.90;;;;;;5031623;28;20460;-70
2023/07/22 05:42:17;;;;;;;3.50;2.37;;;14.50;99.90;;;;;;5042764;28;20472;-70
2023/07/22 05:44:44;;;;;;;2.70;1.90;;;14.60;99.90;;;;;;5050354;28;20808;-71
2023/07/22 05:47:11;;;;;;;2.80;2.17;;;14.70;99.90;;;;;;5050931;28;20483;-70
2023/07/22 05:49:38;;;;;;;3.83;2.10;;;14.80;99.90;;;;;;5051054;28;20480;-71
2023/07/22 05:52:05;;;;;;;2.13;1.90;;;14.80;99.90;;;;;;5050978;28;20464;-71
2023/07/22 05:54:32;;;;;;;2.77;2.27;;;15.00;99.90;;;;;;5050739;28;20843;-71
2023/07/22 05:57:00;;;;;;;2.90;1.83;;;15.10;99.90;;;;;;5050401;28;20480;-71
2023/07/22 05:59:27;;;;;;;1.87;1.70;;;15.20;99.90;;;;;;5050976;28;20460;-71
2023/07/22 06:01:54;;;;;;;2.50;2.13;;;15.30;99.90;;;;;;5040830;28;20465;-71
2023/07/22 06:04:20;;;;;;;2.87;2.10;;;15.40;99.90;;;;;;5030610;28;20468;-71
2023/07/22 06:06:47;;;;;;;2.03;1.80;;;15.50;99.90;;;;;;5030703;28;20469;-71
2023/07/22 06:09:14;;;;;;;2.30;1.87;;;15.60;99.90;;;;;;5030708;28;20856;-71
2023/07/22 06:11:41;;;;;;;2.23;1.80;;;15.60;99.90;;;;;;5030736;28;20466;-71
2023/07/22 06:14:09;;;;;;;2.60;2.40;;;15.70;99.90;;;;;;5030694;28;20467;-71
2023/07/22 06:16:36;;;;;;;3.10;1.67;;;15.70;99.90;;;;;;5064542;22;20495;-91
2023/07/22 06:19:08;;;;;;;1.93;1.73;;;15.80;99.90;;;;;;5064584;28;20448;-91
2023/07/22 06:21:35;;;;;;;2.73;1.83;;;15.90;99.90;;;;;;5062112;28;20511;-92
2023/07/22 06:24:17;;;;;;;2.30;1.90;;;15.90;99.90;;;;;;5074616;28;20449;-94
2023/07/22 06:27:03;;;;;;;2.30;2.10;;;16.00;99.90;;;;;;5068429;28;20470;-95
2023/07/22 06:29:33;;;;;;;2.40;2.00;;;16.10;99.90;;;;;;5072400;28;20479;-94
2023/07/22 06:32:24;;;;;;;2.40;2.17;;;16.10;99.90;;;;;;5072052;28;20546;-93
2023/07/22 06:38:34;;;;;;;6.50;1.80;;;16.30;99.90;;;;;;5071237;28;20452;-94
2023/07/22 06:41:01;;;;;;;3.20;1.83;;;16.40;99.90;;;;;;5083999;22;20537;-73
2023/07/22 06:43:28;;;;;;;2.23;1.93;;;16.50;99.90;;;;;;5010874;28;20459;-73
2023/07/22 06:45:56;;;;;;;2.33;1.83;;;16.50;99.90;;;;;;5010130;28;20880;-74
2023/07/22 06:48:23;;;;;;;4.03;2.03;;;16.60;99.90;;;;;;5004405;28;20870;-73
2023/07/22 06:50:50;;;;;;;2.10;1.87;;;16.70;99.90;;;;;;5010372;28;21005;-73
2023/07/22 06:53:16;;;;;;;3.57;2.13;;;16.70;99.90;;;;;;5010511;28;20458;-74
2023/07/22 06:55:49;;;;;;;2.40;2.20;;;16.80;99.90;;;;;;5009375;28;20469;-73
2023/07/22 06:58:16;;;;;;;2.67;1.90;;;16.80;99.90;;;;;;5010317;28;20556;-73
2023/07/22 07:00:43;;;;;;;3.50;1.83;;;16.90;99.90;;;;;;5010171;28;20476;-73
2023/07/22 07:03:12;;;;;;;2.20;1.93;;;17.00;99.90;;;;;;5010287;28;20857;-73
2023/07/22 07:05:41;;;;;;;1.77;1.63;;;17.00;99.90;;;;;;5009552;28;20464;-73
2023/07/22 07:08:08;;;;;;;1.97;1.80;;;17.10;99.90;;;;;;5010003;28;20485;-73
2023/07/22 07:10:38;;;;;;;2.70;1.90;;;17.10;99.90;;;;;;5010474;28;20471;-74
2023/07/22 07:13:05;;;;;;;2.20;2.00;;;17.20;99.90;;;;;;5010116;28;20457;-74
2023/07/22 07:15:31;;;;;;;3.10;2.00;;;17.40;99.90;;;;;;5010763;28;20462;-74
2023/07/22 07:17:58;;;;;;;2.23;1.80;;;17.40;99.90;;;;;;5010419;28;20492;-73
2023/07/22 07:20:26;;;;;;;2.33;1.93;;;17.50;99.90;;;;;;5010244;28;20454;-73
2023/07/22 07:22:53;;;;;;;2.93;2.03;;;17.50;99.90;;;;;;5010052;28;20479;-72
2023/07/22 07:25:20;;;;;;;2.03;1.83;;;17.70;99.90;;;;;;5009159;28;20465;-73
2023/07/22 07:27:46;;;;;;;2.17;1.67;;;17.70;99.90;;;;;;5010032;28;20485;-73
2023/07/22 07:30:13;;;;;;;2.03;1.80;;;17.80;99.90;;;;;;5010009;28;20481;-73
2023/07/22 07:32:40;;;;;;;2.50;1.73;;;17.90;99.90;;;;;;5010203;28;20468;-73
2023/07/22 07:35:08;;;;;;;1.60;1.50;;;18.00;99.90;;;;;;5009950;28;20800;-73
2023/07/22 07:37:36;;;;;;;1.90;1.53;;;18.10;99.90;;;;;;5009695;28;20661;-73
2023/07/22 07:40:04;;;;;;;2.27;1.80;;;18.20;99.90;;;;;;5009770;28;20828;-73
2023/07/22 07:42:30;;;;;;;2.63;1.70;;;18.20;99.90;;;;;;4994338;28;20476;-74
2023/07/22 07:44:57;;;;;;;1.93;1.27;;;18.20;99.90;;;;;;5009670;28;20461;-74
2023/07/22 07:47:24;;;;;;;2.00;1.80;;;18.30;99.90;;;;;;5009261;28;20481;-73
2023/07/22 07:49:51;;;;;;;2.13;1.93;;;18.40;99.90;;;;;;5003214;28;20484;-73
2023/07/22 07:52:17;;;;;;;2.10;1.40;;;18.40;99.90;;;;;;4989785;28;20472;-74
2023/07/22 07:54:45;;;;;;;2.87;1.50;;;18.60;99.90;;;;;;4989663;28;20469;-74
2023/07/22 07:57:12;;;;;;;2.00;1.83;;;18.70;99.90;;;;;;4989867;28;20497;-74
2023/07/22 07:59:39;;;;;;;2.50;2.00;;;18.80;99.90;;;;;;4990154;28;20486;-74
2023/07/22 08:02:09;;;;;;;2.23;1.67;;;18.90;99.90;;;;;;4998282;28;20473;-74
2023/07/22 08:04:36;;;;;;;1.60;1.47;;;19.00;99.90;;;;;;5009529;28;20462;-74
2023/07/22 08:07:04;;;;;;;2.37;1.87;;;19.10;99.90;;;;;;5010857;28;20489;-74
2023/07/22 08:09:31;;;;;;;1.90;1.63;;;19.20;99.90;;;;;;5012988;28;20478;-74
2023/07/22 08:11:59;;;;;;;2.67;2.07;;;19.20;99.90;;;;;;5013127;28;20477;-74
2023/07/22 08:14:25;;;;;;;1.67;1.57;;;19.30;99.90;;;;;;5012899;28;20465;-74
2023/07/22 08:16:52;;;;;;;2.00;1.60;;;19.40;99.90;;;;;;5012580;28;20468;-74
2023/07/22 08:19:19;;;;;;;2.77;1.70;;;19.50;99.90;;;;;;5013108;28;20995;-74
2023/07/22 08:21:46;;;;;;;2.30;1.97;;;19.50;99.90;;;;;;5013035;28;20756;-74
2023/07/22 08:24:12;;;;;;;3.20;1.70;;;19.50;99.90;;;;;;5012680;28;20475;-73
2023/07/22 08:26:39;;;;;;;1.97;1.77;;;19.60;99.90;;;;;;5012614;28;20457;-74
2023/07/22 08:29:07;;;;;;;1.87;1.50;;;19.60;99.90;;;;;;5013038;28;20486;-74
2023/07/22 08:31:34;;;;;;;1.53;1.40;;;19.80;99.90;;;;;;5012899;28;20461;-74
2023/07/22 08:34:01;;;;;;;2.60;1.40;;;19.90;99.90;;;;;;5013070;28;20502;-74
2023/07/22 08:36:27;;;;;;;1.67;1.57;;;20.00;99.90;;;;;;5013381;28;20889;-74
2023/07/22 08:38:54;;;;;;;2.10;1.50;;;20.00;99.90;;;;;;5012882;28;20486;-74
2023/07/22 08:41:22;;;;;;;2.07;1.60;;;20.00;99.90;;;;;;5012636;28;20950;-73
2023/07/22 08:43:51;;;;;;;2.00;1.80;;;20.10;99.90;;;;;;5012763;28;20468;-73
2023/07/22 08:46:21;;;;;;;1.93;1.73;;;20.20;99.90;;;;;;5012181;28;20462;-73
2023/07/22 08:48:49;;;;;;;1.53;1.40;;;20.40;99.90;;;;;;5012401;28;20493;-73
2023/07/22 08:51:17;;;;;;;1.50;1.30;;;20.50;99.90;;;;;;5012770;28;20505;-73
2023/07/22 08:53:45;;;;;;;1.63;1.53;;;20.60;99.90;;;;;;5012177;28;20478;-73
2023/07/22 08:56:12;;;;;;;2.97;2.27;;;20.80;99.90;;;;;;5012362;28;20929;-74
2023/07/22 08:58:42;;;;;;;1.63;1.40;;;20.90;99.90;;;;;;5012281;28;20495;-74
2023/07/22 09:01:09;;;;;;;1.77;1.40;;;21.00;99.90;;;;;;5012525;28;20472;-74
2023/07/22 09:03:40;;;;;;;1.67;1.57;;;21.20;99.90;;;;;;5012179;28;20753;-74
2023/07/22 09:06:07;;;;;;;2.13;1.60;;;21.20;99.90;;;;;;5011967;28;20465;-74
2023/07/22 09:08:34;;;;;;;5.10;1.70;;;21.20;99.90;;;;;;5011863;28;20495;-74
2023/07/22 09:11:02;;;;;;;1.50;1.20;;;21.20;99.90;;;;;;5012255;28;20465;-74
2023/07/22 09:13:29;;;;;;;1.70;1.53;;;21.10;99.90;;;;;;5012096;28;20854;-74
2023/07/22 09:15:58;;;;;;;1.60;1.40;;;21.00;99.90;;;;;;5011628;28;20837;-74
2023/07/22 09:18:25;;;;;;;4.23;1.87;;;20.90;99.90;;;;;;5011272;28;20491;-74
2023/07/22 09:20:53;;;;;;;2.50;1.80;;;20.90;99.90;;;;;;5012039;28;20461;-73
2023/07/22 09:23:33;;;;;;;2.27;1.50;;;20.90;99.90;;;;;;5011784;28;20465;-74
2023/07/22 09:26:10;;;;;;;1.53;1.40;;;20.90;99.90;;;;;;5011485;28;20487;-74
2023/07/22 09:28:52;;;;;;;2.87;1.80;;;20.90;99.90;;;;;;5011523;28;20484;-73
2023/07/22 09:31:19;;;;;;;2.20;1.60;;;20.90;99.90;;;;;;5011659;28;20465;-73
2023/07/22 09:33:46;;;;;;;1.63;1.30;;;21.00;99.90;;;;;;5011564;28;20464;-74
2023/07/22 09:36:14;;;;;;;1.77;1.50;;;21.00;99.90;;;;;;5000935;28;20834;-74
2023/07/22 09:38:41;;;;;;;1.70;1.60;;;21.00;99.90;;;;;;4994740;28;20486;-73
2023/07/22 09:41:08;;;;;;;3.00;1.33;;;21.00;99.90;;;;;;5010707;28;20462;-73
2023/07/22 09:43:39;;;;;;;1.50;1.40;;;21.00;99.90;;;;;;5010958;28;20513;-74
2023/07/22 09:46:10;;;;;;;1.53;1.30;;;21.20;99.90;;;;;;5010435;28;20492;-73
2023/07/22 09:48:44;;;;;;;1.90;1.50;;;21.40;99.90;;;;;;5010580;28;20489;-74
2023/07/22 09:51:16;;;;;;;1.90;1.80;;;21.50;99.90;;;;;;5010586;28;20476;-74
2023/07/22 09:53:47;;;;;;;1.77;1.63;;;21.50;99.90;;;;;;4994718;28;20492;-73
2023/07/22 09:56:14;;;;;;;1.60;1.50;;;21.50;99.90;;;;;;5009857;28;20476;-73
2023/07/22 09:58:41;;;;;;;2.30;1.60;;;21.50;99.40;;;;;;5010403;28;20866;-74
2023/07/22 10:01:08;;;;;;;3.20;1.73;;;21.50;98.90;;;;;;5010772;28;20468;-74
2023/07/22 10:03:39;;;;;;;1.70;1.40;;;21.50;99.90;;;;;;5010806;28;20838;-73
2023/07/22 10:06:08;;;;;;;1.70;1.60;;;21.40;99.20;;;;;;5009971;28;20979;-74
2023/07/22 10:08:38;;;;;;;1.77;1.43;;;21.30;98.70;;;;;;5010195;28;20481;-73
2023/07/22 10:11:09;;;;;;;1.53;1.30;;;21.20;98.30;;;;;;5010751;28;20488;-73
2023/07/22 10:13:37;;;;;;;1.50;1.40;;;21.30;99.40;;;;;;5010503;28;20500;-73
2023/07/22 10:16:05;;;;;;;1.53;1.43;;;21.50;99.20;;;;;;5010126;28;20500;-73
2023/07/22 10:18:35;;;;;;;2.00;1.80;;;21.60;99.80;;;;;;5010612;28;20477;-72
2023/07/22 10:21:03;;;;;;;1.60;1.47;;;21.60;99.60;;;;;;5013263;28;20470;-73
2023/07/22 10:23:32;;;;;;;1.50;1.37;;;21.60;99.80;;;;;;5054857;22;20526;-93
2023/07/22 10:26:00;;;;;;;1.53;1.40;;;21.60;99.90;;;;;;5030699;28;20491;-91
2023/07/22 10:34:32;;;;;;;1.53;1.30;;;21.50;98.60;;;;;;5010590;28;20477;-73
2023/07/22 10:37:00;;;;;;;1.50;1.40;;;21.60;99.80;;;;;;5010561;28;20485;-74
2023/07/22 10:39:27;;;;;;;2.60;1.50;;;21.60;99.30;;;;;;5011636;28;21154;-74
2023/07/22 10:42:01;;;;;;;1.30;1.20;;;21.90;99.90;;;;;;5012853;28;20463;-72
2023/07/22 10:44:31;;;;;;;2.07;1.30;;;22.00;99.90;;;;;;5012766;28;20496;-72
2023/07/22 10:46:59;;;;;;;1.20;1.10;;;22.00;99.60;;;;;;5011496;28;21075;-74
2023/07/22 10:49:43;;;;;;;1.73;1.50;;;22.20;99.90;;;;;;5011291;28;20484;-72
2023/07/22 10:52:13;;;;;;;1.73;1.50;;;22.50;99.90;;;;;;5011581;28;20968;-72
2023/07/22 10:54:40;;;;;;;1.60;1.47;;;22.60;99.80;;;;;;5011683;28;20470;-72
2023/07/22 10:57:26;;;;;;;2.00;1.50;;;22.60;99.80;;;;;;5011676;28;20572;-72
2023/07/22 10:59:55;;;;;;;2.57;2.13;;;22.40;99.70;;;;;;5011137;28;20454;-74
2023/07/22 11:02:26;;;;;;;1.43;1.30;;;22.40;99.90;;;;;;5010604;28;20465;-74
2023/07/22 11:04:52;;;;;;;1.57;1.47;;;22.30;99.90;;;;;;5002596;28;20454;-74
2023/07/22 11:07:31;;;;;;;2.50;1.77;;;22.20;99.90;;;;;;5011018;28;20473;-72
2023/07/22 11:09:58;;;;;;;2.37;1.47;;;22.20;99.90;;;;;;5003973;28;20547;-74
2023/07/22 11:12:28;;;;;;;2.40;1.70;;;22.10;99.70;;;;;;5010635;28;20473;-74
2023/07/22 11:15:05;;;;;;;1.90;1.60;;;22.00;98.90;;;;;;5010245;28;20575;-74
2023/07/22 11:17:33;;;;;;;2.30;1.73;;;22.00;99.50;;;;;;5010178;28;20492;-74
2023/07/22 11:20:03;;;;;;;2.70;1.70;;;21.90;99.20;;;;;;5010625;28;20884;-74
2023/07/22 11:22:30;;;;;;;4.33;1.70;;;21.90;99.90;;;;;;5010515;28;20492;-74
2023/07/22 11:24:57;;;;;;;2.70;1.70;;;21.90;99.50;;;;;;5010215;28;20468;-74
2023/07/22 11:27:26;;;;;;;1.97;1.80;;;22.00;99.90;;;;;;5010112;28;20574;-74
2023/07/22 11:29:53;;;;;;;2.13;1.40;;;22.20;99.90;;;;;;5010812;28;20488;-74
2023/07/22 11:32:22;;;;;;;2.03;1.83;;;22.50;99.90;;;;;;5010762;28;20488;-74
2023/07/22 11:34:49;;;;;;;4.10;1.97;;;22.80;99.90;;;;;;5010059;28;20539;-74
2023/07/22 11:37:16;;;;;;;1.90;1.60;;;23.00;99.90;;;;;;5010293;28;20493;-74
2023/07/22 11:39:44;;;;;;;2.17;1.60;;;23.20;99.90;;;;;;5006512;28;21001;-73
2023/07/22 11:42:11;;;;;;;1.63;1.40;;;23.30;99.90;;;;;;5011760;28;20531;-73
2023/07/22 11:44:39;;;;;;;2.20;1.80;;;23.40;99.90;;;;;;5013730;28;20529;-74
2023/07/22 11:47:08;;;;;;;2.20;1.57;;;23.50;99.90;;;;;;5013311;28;20486;-74
2023/07/22 11:49:36;;;;;;;1.93;1.63;;;23.60;99.90;;;;;;5013192;28;20478;-73
2023/07/22 11:52:05;;;;;;;1.93;1.57;;;23.80;97.20;;;;;;5013816;28;21416;-74
2023/07/22 11:54:33;;;;;;;2.00;1.80;;;23.90;98.70;;;;;;5012732;28;20469;-73
2023/07/22 11:57:11;;;;;;;1.60;1.40;;;24.00;99.90;;;;;;5013148;28;20554;-73
2023/07/22 11:59:41;;;;;;;1.97;1.50;;;24.20;99.50;;;;;;5013296;28;20467;-73
2023/07/22 12:02:13;;;;;;;1.80;1.70;;;24.20;98.50;;;;;;5013545;28;20467;-73
2023/07/22 12:04:40;;;;;;;1.80;1.47;;;24.30;98.60;;;;;;5009791;28;20468;-74
2023/07/22 12:07:07;;;;;;;1.87;1.50;;;24.40;98.90;;;;;;5014743;28;20483;-71
2023/07/22 12:09:34;;;;;;;2.30;1.73;;;24.50;98.90;;;;;;5014504;28;20467;-74
2023/07/22 12:12:01;;;;;;;1.90;1.70;;;24.60;96.20;;;;;;5014800;28;20495;-73
2023/07/22 12:14:35;;;;;;;1.80;1.40;;;24.60;96.70;;;;;;5013715;28;20479;-71
2023/07/22 12:17:04;;;;;;;1.90;1.50;;;24.60;97.20;;;;;;5015420;28;20487;-74
2023/07/22 12:19:30;;;;;;;2.40;1.93;;;24.70;97.80;;;;;;5014297;28;20571;-71
2023/07/22 12:21:57;;;;;;;2.10;1.80;;;24.90;97.50;;;;;;5014287;28;20523;-72
2023/07/22 12:24:24;;;;;;;2.13;1.87;;;24.80;97.40;;;;;;5014287;28;20987;-72
2023/07/22 12:26:51;;;;;;;2.60;1.80;;;24.70;97.50;;;;;;5013238;28;20475;-71
2023/07/22 12:29:18;;;;;;;2.13;1.90;;;24.80;95.50;;;;;;5013292;28;20479;-72
2023/07/22 12:31:44;;;;;;;1.80;1.60;;;24.80;96.60;;;;;;5015441;28;20480;-72
2023/07/22 12:34:13;;;;;;;2.30;1.90;;;24.70;97.20;;;;;;5014738;28;20462;-73
2023/07/22 12:36:40;;;;;;;2.37;1.50;;;24.60;96.80;;;;;;5013606;28;20975;-72
2023/07/22 12:39:07;;;;;;;2.00;1.80;;;24.40;96.30;;;;;;5014051;28;20471;-72
2023/07/22 12:41:34;;;;;;;2.17;1.70;;;24.30;97.60;;;;;;5013016;28;20480;-73
2023/07/22 12:44:00;;;;;;;2.37;1.90;;;24.40;97.60;;;;;;5147701;22;20483;-70
2023/07/22 12:46:27;;;;;;;2.83;1.83;;;24.60;98.40;;;;;;5023103;28;20982;-70
2023/07/22 12:48:54;;;;;;;2.53;1.90;;;24.90;96.10;;;;;;5032237;28;20480;-71
2023/07/22 12:51:22;;;;;;;2.40;2.13;;;25.00;95.60;;;;;;5032568;28;20488;-70
2023/07/22 12:53:48;;;;;;;2.20;2.00;;;25.10;95.10;;;;;;5031317;28;20467;-70
2023/07/22 12:56:15;;;;;;;2.50;1.93;;;25.10;94.80;;;;;;5032223;28;20860;-69
2023/07/22 12:58:42;;;;;;;2.60;2.30;;;25.10;94.70;;;;;;5032240;28;20484;-70
2023/07/22 13:01:08;;;;;;;2.50;2.07;;;25.10;94.70;;;;;;5032446;28;20457;-70